createdAt,value
2023-04-10T00:04:08.144Z,96414.53
2023-04-10T00:09:12.435Z,96338.47
2023-04-10T00:14:17.763Z,96357.34
2023-04-10T00:24:38.202Z,96354.84
2023-04-10T00:29:52.435Z,96357.88
2023-04-10T00:35:28.171Z,96337.47
2023-04-10T00:40:37.408Z,96354.50
2023-04-10T00:45:42.836Z,96374.88
2023-04-10T00:50:53.415Z,96327.31
2023-04-10T00:56:01.015Z,96335.28
2023-04-10T01:01:09.317Z,96328.31
2023-04-10T01:06:17.369Z,96352.16
2023-04-10T01:11:41.907Z,96364.03
2023-04-10T01:16:57.447Z,96355.88
2023-04-10T01:22:09.230Z,96353.59
2023-04-10T01:27:48.821Z,96365.81
2023-04-10T01:33:04.298Z,96342.66
2023-04-10T01:38:10.737Z,96320.56
2023-04-10T01:43:23.505Z,96320.19
2023-04-10T01:48:31.028Z,96353.03
2023-04-10T01:53:36.179Z,96364.75
2023-04-10T01:58:41.803Z,96368.84
2023-04-10T02:03:46.418Z,96326.19
2023-04-10T02:09:04.518Z,96371.31
2023-04-10T02:14:15.233Z,96358.63
2023-04-10T02:19:23.092Z,96337.28
2023-04-10T02:24:29.506Z,96358.38
2023-04-10T02:29:34.957Z,96313.16
2023-04-10T02:34:38.899Z,96310.94
2023-04-10T02:39:42.038Z,96309.81
2023-04-10T02:44:46.755Z,96328.81
2023-04-10T02:50:11.709Z,96336.13
2023-04-10T02:55:17.720Z,96321.50
2023-04-10T03:00:34.093Z,96328.47
2023-04-10T03:06:02.683Z,96341.66
2023-04-10T03:11:16.250Z,96330.31
2023-04-10T03:16:22.139Z,96343.88
2023-04-10T03:21:28.954Z,96339.34
2023-04-10T03:26:32.037Z,96323.09
2023-04-10T03:31:37.043Z,96324.50
2023-04-10T03:36:42.480Z,96355.53
2023-04-10T03:41:48.035Z,96330.34
2023-04-10T03:46:59.206Z,96322.59
2023-04-10T03:52:08.345Z,96359.22
2023-04-10T03:57:25.724Z,96336.09
2023-04-10T04:08:14.257Z,96335.19
2023-04-10T04:13:37.314Z,96334.13
2023-04-10T04:18:50.572Z,96351.38
2023-04-10T04:24:01.475Z,96380.22
2023-04-10T04:29:29.097Z,96330.31
2023-04-10T04:34:55.316Z,96329.44
2023-04-10T04:40:23.670Z,96378.88
2023-04-10T04:45:53.042Z,96373.16
2023-04-10T04:51:16.289Z,96361.75
2023-04-10T04:56:28.247Z,96341.03
2023-04-10T05:01:56.246Z,96361.59
2023-04-10T05:07:26.791Z,96341.66
2023-04-10T05:12:52.335Z,96358.25
2023-04-10T05:18:09.719Z,96362.72
2023-04-10T05:23:35.832Z,96349.59
2023-04-10T05:28:57.185Z,96387.22
2023-04-10T05:34:28.134Z,96360.19
2023-04-10T05:40:05.230Z,96358.66
2023-04-10T05:45:38.752Z,96322.25
2023-04-10T05:51:21.767Z,96346.72
2023-04-10T05:56:43.460Z,96335.59
2023-04-10T06:02:25.034Z,96362.13
2023-04-10T06:07:36.080Z,96391.19
2023-04-10T06:12:51.485Z,96362.03
2023-04-10T06:18:00.965Z,96354.25
2023-04-10T06:23:10.027Z,96338.38
2023-04-10T06:28:14.695Z,96341.34
2023-04-10T06:33:23.748Z,96372.19
2023-04-10T06:38:53.008Z,96347.56
2023-04-10T06:44:04.080Z,96335.81
2023-04-10T06:49:23.269Z,96310.41
2023-04-10T06:54:38.192Z,96328.34
2023-04-10T06:59:50.620Z,96328.44
2023-04-10T07:04:57.222Z,96348.59
2023-04-10T07:10:25.825Z,96328.97
2023-04-10T07:15:39.055Z,96356.25
2023-04-10T07:20:42.588Z,96333.97
2023-04-10T07:25:47.465Z,96352.03
2023-04-10T07:30:59.747Z,96346.25
2023-04-10T07:36:10.645Z,96356.72
2023-04-10T07:41:15.876Z,96344.22
2023-04-10T07:46:22.593Z,96348.34
2023-04-10T07:51:26.408Z,96351.63
2023-04-10T07:56:40.631Z,96349.22
2023-04-10T08:01:43.651Z,96334.59
2023-04-10T08:07:10.620Z,96321.84
2023-04-10T08:12:19.344Z,96328.28
2023-04-10T08:17:29.251Z,96291.94
2023-04-10T08:23:03.095Z,96353.41
2023-04-10T08:28:20.427Z,96329.19
2023-04-10T08:33:23.266Z,96355.13
2023-04-10T08:38:40.933Z,96332.66
2023-04-10T08:43:53.764Z,96346.25
2023-04-10T08:49:09.312Z,96305.59
2023-04-10T08:54:39.542Z,96301.06
2023-04-10T08:59:54.368Z,96307.19
2023-04-10T09:05:11.853Z,96273.63
2023-04-10T09:16:06.502Z,96274.69
2023-04-10T09:21:23.549Z,96302.38
2023-04-10T09:26:33.977Z,96287.25
2023-04-10T09:31:40.674Z,96238.41
2023-04-10T09:37:10.124Z,96243.56
2023-04-10T09:42:15.520Z,96229.50
2023-04-10T09:47:25.105Z,96224.06
2023-04-10T09:52:35.417Z,96253.50
2023-04-10T09:57:52.908Z,96235.97
2023-04-10T10:03:12.408Z,96249.63
2023-04-10T10:08:18.293Z,96226.34
2023-04-10T10:19:57.305Z,96147.25
2023-04-10T10:25:18.782Z,96164.28
2023-04-10T10:30:37.457Z,96175.84
2023-04-10T10:35:43.556Z,96181.13
2023-04-10T10:40:55.269Z,96214.09
2023-04-10T10:46:14.726Z,96213.88
2023-04-10T10:51:29.575Z,96187.81
2023-04-10T10:56:48.182Z,96183.91
2023-04-10T11:02:18.575Z,96198.44
2023-04-10T11:08:01.665Z,96199.47
2023-04-10T11:13:20.673Z,96182.97
2023-04-10T11:19:02.782Z,96192.72
2023-04-10T11:24:18.581Z,96185.88
2023-04-10T11:29:33.489Z,96191.16
2023-04-10T11:34:49.413Z,96160.25
2023-04-10T11:40:10.486Z,96159.72
2023-04-10T11:45:27.662Z,96183.63
2023-04-10T11:50:34.584Z,96194.19
2023-04-10T11:55:43.377Z,96140.22
2023-04-10T12:01:36.500Z,96128.63
2023-04-10T12:06:53.110Z,96133.97
2023-04-10T12:12:09.840Z,96105.06
2023-04-10T12:22:35.612Z,96125.97
2023-04-10T12:33:07.494Z,96126.28
2023-04-10T12:38:12.733Z,96107.66
2023-04-10T12:43:35.081Z,96097.59
2023-04-10T12:48:41.986Z,96092.28
2023-04-10T12:53:48.376Z,96046.59
2023-04-10T12:59:09.111Z,96068.19
2023-04-10T13:04:17.701Z,96048.47
2023-04-10T13:09:40.733Z,96049.28
2023-04-10T13:14:47.980Z,96049.28
2023-04-10T13:19:52.357Z,96030.84
2023-04-10T13:24:55.275Z,96009.84
2023-04-10T13:30:01.855Z,96035.56
2023-04-10T13:35:07.481Z,96043.16
2023-04-10T13:40:13.422Z,96061.47
2023-04-10T13:45:19.928Z,96066.53
2023-04-10T13:50:28.765Z,96043.59
2023-04-10T13:55:33.308Z,96035.84
2023-04-10T14:00:41.103Z,96069.88
2023-04-10T14:05:49.076Z,96071.22
2023-04-10T14:10:57.563Z,96057.66
2023-04-10T14:16:11.615Z,96052.53
2023-04-10T14:21:14.603Z,96052.28
2023-04-10T14:26:28.281Z,96058.53
2023-04-10T14:31:31.023Z,96060.38
2023-04-10T14:36:33.862Z,96107.63
2023-04-10T14:41:38.921Z,96085.22
2023-04-10T14:46:45.300Z,96119.72
2023-04-10T14:51:56.189Z,96081.59
2023-04-10T14:56:59.797Z,96055.97
2023-04-10T15:02:02.002Z,96078.00
2023-04-10T15:07:04.353Z,96095.88
2023-04-10T15:12:07.824Z,96062.16
2023-04-10T15:17:10.604Z,96083.22
2023-04-10T15:22:13.569Z,96064.28
2023-04-10T15:27:16.468Z,96096.28
2023-04-10T15:32:19.083Z,96077.47
2023-04-10T15:37:21.822Z,96058.25
2023-04-10T15:42:24.478Z,96082.19
2023-04-10T15:47:27.944Z,96088.28
2023-04-10T15:52:31.981Z,96069.88
2023-04-10T15:57:35.365Z,96061.25
2023-04-10T16:02:38.036Z,96050.50
2023-04-10T16:07:43.993Z,96061.34
2023-04-10T16:12:46.590Z,96066.75
2023-04-10T16:17:49.313Z,96064.72
2023-04-10T16:22:52.181Z,96027.69
2023-04-10T16:27:55.815Z,96035.53
2023-04-10T16:32:58.362Z,96063.44
2023-04-10T16:38:01.334Z,96059.59
2023-04-10T16:43:04.274Z,96052.84
2023-04-10T16:48:07.025Z,96068.75
2023-04-10T16:53:10.085Z,96056.47
2023-04-10T16:58:12.930Z,96023.41
2023-04-10T17:03:15.844Z,96065.88
2023-04-10T17:08:21.708Z,96054.41
2023-04-10T17:13:27.130Z,96053.22
2023-04-10T17:18:30.332Z,96029.25
2023-04-10T17:23:33.628Z,96043.81
2023-04-10T17:28:39.414Z,96056.00
2023-04-10T17:33:42.555Z,96060.06
2023-04-10T17:38:45.887Z,96079.19
2023-04-10T17:43:48.888Z,96077.31
2023-04-10T17:48:51.728Z,96055.94
2023-04-10T17:53:55.300Z,96080.91
2023-04-10T17:59:04.590Z,96064.25
2023-04-10T18:04:07.792Z,96056.66
2023-04-10T18:09:13.974Z,96033.09
2023-04-10T18:14:20.841Z,96076.16
2023-04-10T18:19:24.398Z,96042.22
2023-04-10T18:24:29.772Z,96100.88
2023-04-10T18:29:32.728Z,96079.66
2023-04-10T18:34:37.104Z,96093.31
2023-04-10T18:39:41.293Z,96094.69
2023-04-10T18:44:48.442Z,96086.00
2023-04-10T18:49:51.503Z,96057.47
2023-04-10T18:54:54.353Z,96050.94
2023-04-10T18:59:58.213Z,96062.19
2023-04-10T19:05:02.878Z,96017.06
2023-04-10T19:10:06.270Z,96042.72
2023-04-10T19:15:14.158Z,96061.09
2023-04-10T19:20:18.209Z,96075.31
2023-04-10T19:25:43.950Z,96092.72
2023-04-10T19:30:47.114Z,96044.75
2023-04-10T19:35:49.945Z,96053.38
2023-04-10T19:40:52.947Z,96050.28
2023-04-10T19:46:02.335Z,96048.31
2023-04-10T19:51:06.098Z,96050.34
2023-04-10T19:56:12.217Z,96017.03
2023-04-10T20:01:19.987Z,96040.09
2023-04-10T20:06:23.762Z,96062.75
2023-04-10T20:11:35.617Z,96011.03
2023-04-10T20:16:41.645Z,96039.88
2023-04-10T20:21:47.387Z,96014.22
2023-04-10T20:26:50.464Z,96011.56
2023-04-10T20:31:53.540Z,96049.09
2023-04-10T20:37:02.140Z,96028.16
2023-04-10T20:42:06.509Z,96031.28
2023-04-10T20:47:09.573Z,96030.88
2023-04-10T20:52:17.804Z,96012.59
2023-04-10T20:57:26.301Z,96008.22
2023-04-10T21:02:29.480Z,96017.81
2023-04-10T21:07:34.946Z,96001.56
2023-04-10T21:12:38.523Z,95994.44
2023-04-10T21:17:48.033Z,95980.13
2023-04-10T21:22:51.117Z,96009.91
2023-04-10T21:28:00.667Z,95955.59
2023-04-10T21:33:06.762Z,95992.56
2023-04-10T21:38:14.482Z,95971.69
2023-04-10T21:43:20.796Z,96008.75
2023-04-10T21:48:28.263Z,95995.34
2023-04-10T21:53:31.465Z,95957.94
2023-04-10T21:58:37.638Z,95997.34
2023-04-10T22:03:40.724Z,95979.53
2023-04-10T22:08:47.576Z,95988.16
2023-04-10T22:13:50.608Z,95951.16
2023-04-10T22:18:54.452Z,95975.78
2023-04-10T22:23:59.606Z,95974.53
2023-04-10T22:29:17.859Z,95969.84
2023-04-10T22:34:23.663Z,95981.63
2023-04-10T22:39:26.773Z,95956.56
2023-04-10T22:44:29.638Z,95962.00
2023-04-10T22:49:35.323Z,95959.16
2023-04-10T22:54:40.697Z,95954.13
2023-04-10T22:59:43.547Z,95909.91
2023-04-10T23:04:49.115Z,95913.38
2023-04-10T23:09:51.936Z,95891.00
2023-04-10T23:14:54.734Z,95893.06
2023-04-10T23:19:57.706Z,95904.31
2023-04-10T23:25:00.587Z,95919.13
2023-04-10T23:30:04.434Z,95923.88
2023-04-10T23:35:07.749Z,95914.97
2023-04-10T23:40:11.493Z,95904.63
2023-04-10T23:45:14.439Z,95874.44
2023-04-10T23:50:17.424Z,95877.16
2023-04-10T23:55:21.917Z,95887.19
